West Amana, Iowa
Current Conditions -  °F | °C
As of 5:52 PM on Monday 20 Oct 2014 (Local Time) from KCID Reporting Station
Clear Clear  
Wind Chill: 64°   Ceiling: Unl
Heat Index: 64°   Visibility: 10mi
Dew Point: 42°   Wind: 10mph
Humidity: 45%   Direction: 320°NW
Pressure: 29.96"   Gusts: NA
Location:  41.8244°N, 91.8792°W
Report Text: KCID 202252Z 32009KT 10SM CLR 18/06 A2996 RMK AO2 SLP146 T01780056
Loading
Personal Weather Stations






























Interactive Weather Map
Tropical Storm Tracking
New forecast layout! Learn more

10-Day Weather Forecast

Advertisements
Track Severe Weather on mobile